sensor_id;sensor_type;location;lat;lon;timestamp;temperature;humidity
64634;DHT22;51043;52.406;9.690;2023-07-31T00:01:22;15.50;99.90
64634;DHT22;51043;52.406;9.690;2023-07-31T00:03:54;15.40;99.90
64634;DHT22;51043;52.406;9.690;2023-07-31T00:06:23;15.40;99.90
64634;DHT22;51043;52.406;9.690;2023-07-31T00:08:51;15.30;99.90
64634;DHT22;51043;52.406;9.690;2023-07-31T00:11:20;15.30;99.90
64634;DHT22;51043;52.406;9.690;2023-07-31T00:13:48;15.40;99.90
64634;DHT22;51043;52.406;9.690;2023-07-31T00:16:17;15.30;99.90
64634;DHT22;51043;52.406;9.690;2023-07-31T00:18:45;15.50;99.90
64634;DHT22;51043;52.406;9.690;2023-07-31T00:21:13;15.40;99.90
64634;DHT22;51043;52.406;9.690;2023-07-31T00:23:43;15.40;99.90
64634;DHT22;51043;52.406;9.690;2023-07-31T00:26:11;15.30;99.90
64634;DHT22;51043;52.406;9.690;2023-07-31T00:28:39;15.30;99.90
64634;DHT22;51043;52.406;9.690;2023-07-31T00:31:08;15.30;99.90
64634;DHT22;51043;52.406;9.690;2023-07-31T00:33:36;15.30;99.90
64634;DHT22;51043;52.406;9.690;2023-07-31T00:36:04;15.30;99.90
64634;DHT22;51043;52.406;9.690;2023-07-31T00:38:32;15.30;99.90
64634;DHT22;51043;52.406;9.690;2023-07-31T00:41:02;15.30;99.90
64634;DHT22;51043;52.406;9.690;2023-07-31T00:43:30;15.30;99.90
64634;DHT22;51043;52.406;9.690;2023-07-31T00:46:00;15.30;99.90
64634;DHT22;51043;52.406;9.690;2023-07-31T00:48:30;15.30;99.90
64634;DHT22;51043;52.406;9.690;2023-07-31T00:50:59;15.30;99.90
64634;DHT22;51043;52.406;9.690;2023-07-31T00:53:28;15.40;99.90
64634;DHT22;51043;52.406;9.690;2023-07-31T00:55:56;15.30;99.90
64634;DHT22;51043;52.406;9.690;2023-07-31T00:58:26;15.30;99.90
64634;DHT22;51043;52.406;9.690;2023-07-31T01:00:54;15.30;99.90
64634;DHT22;51043;52.406;9.690;2023-07-31T01:03:22;15.30;99.90
64634;DHT22;51043;52.406;9.690;2023-07-31T01:06:04;15.30;99.90
64634;DHT22;51043;52.406;9.690;2023-07-31T01:08:40;15.30;99.90
64634;DHT22;51043;52.406;9.690;2023-07-31T01:11:19;15.30;99.90
64634;DHT22;51043;52.406;9.690;2023-07-31T01:13:50;15.20;99.90
64634;DHT22;51043;52.406;9.690;2023-07-31T01:16:19;15.20;99.90
64634;DHT22;51043;52.406;9.690;2023-07-31T01:18:47;15.20;99.90
64634;DHT22;51043;52.406;9.690;2023-07-31T01:24:29;15.20;99.90
64634;DHT22;51043;52.406;9.690;2023-07-31T01:27:04;15.20;99.90
64634;DHT22;51043;52.406;9.690;2023-07-31T01:29:41;15.20;99.90
64634;DHT22;51043;52.406;9.690;2023-07-31T01:32:11;15.10;99.90
64634;DHT22;51043;52.406;9.690;2023-07-31T01:34:40;15.20;99.90
64634;DHT22;51043;52.406;9.690;2023-07-31T01:37:09;15.20;99.90
64634;DHT22;51043;52.406;9.690;2023-07-31T01:39:37;15.10;99.90
64634;DHT22;51043;52.406;9.690;2023-07-31T01:42:07;15.10;99.90
64634;DHT22;51043;52.406;9.690;2023-07-31T01:44:35;15.10;99.90
64634;DHT22;51043;52.406;9.690;2023-07-31T01:47:05;15.10;99.90
64634;DHT22;51043;52.406;9.690;2023-07-31T01:49:40;15.10;99.90
64634;DHT22;51043;52.406;9.690;2023-07-31T01:52:08;15.10;99.90
64634;DHT22;51043;52.406;9.690;2023-07-31T01:54:36;15.10;99.90
64634;DHT22;51043;52.406;9.690;2023-07-31T01:57:09;15.10;99.90
64634;DHT22;51043;52.406;9.690;2023-07-31T01:59:37;15.10;99.90
64634;DHT22;51043;52.406;9.690;2023-07-31T02:02:10;15.10;99.90
64634;DHT22;51043;52.406;9.690;2023-07-31T02:04:38;15.10;99.90
64634;DHT22;51043;52.406;9.690;2023-07-31T02:07:11;15.10;99.90
64634;DHT22;51043;52.406;9.690;2023-07-31T02:09:39;15.10;99.90
64634;DHT22;51043;52.406;9.690;2023-07-31T02:12:10;15.10;99.90
64634;DHT22;51043;52.406;9.690;2023-07-31T02:14:39;15.10;99.90
64634;DHT22;51043;52.406;9.690;2023-07-31T02:17:08;15.10;99.90
64634;DHT22;51043;52.406;9.690;2023-07-31T02:19:36;15.10;99.90
64634;DHT22;51043;52.406;9.690;2023-07-31T02:22:05;15.10;99.90
64634;DHT22;51043;52.406;9.690;2023-07-31T02:24:35;15.10;99.90
64634;DHT22;51043;52.406;9.690;2023-07-31T02:27:04;15.10;99.90
64634;DHT22;51043;52.406;9.690;2023-07-31T02:29:34;15.10;99.90
64634;DHT22;51043;52.406;9.690;2023-07-31T02:32:02;15.10;99.90
64634;DHT22;51043;52.406;9.690;2023-07-31T02:34:31;15.20;99.90
64634;DHT22;51043;52.406;9.690;2023-07-31T02:37:00;15.20;99.90
64634;DHT22;51043;52.406;9.690;2023-07-31T02:39:28;15.10;99.90
64634;DHT22;51043;52.406;9.690;2023-07-31T02:41:56;15.20;99.90
64634;DHT22;51043;52.406;9.690;2023-07-31T02:44:25;15.10;99.90
64634;DHT22;51043;52.406;9.690;2023-07-31T02:46:57;15.10;99.90
64634;DHT22;51043;52.406;9.690;2023-07-31T02:49:25;15.20;99.90
64634;DHT22;51043;52.406;9.690;2023-07-31T02:51:56;15.20;99.90
64634;DHT22;51043;52.406;9.690;2023-07-31T02:54:24;15.10;99.90
64634;DHT22;51043;52.406;9.690;2023-07-31T02:56:53;15.10;99.90
64634;DHT22;51043;52.406;9.690;2023-07-31T02:59:21;15.10;99.90
64634;DHT22;51043;52.406;9.690;2023-07-31T03:01:49;15.10;99.90
64634;DHT22;51043;52.406;9.690;2023-07-31T03:04:19;15.10;99.90
64634;DHT22;51043;52.406;9.690;2023-07-31T03:06:47;15.10;99.90
64634;DHT22;51043;52.406;9.690;2023-07-31T03:09:15;15.10;99.90
64634;DHT22;51043;52.406;9.690;2023-07-31T03:11:44;15.10;99.90
64634;DHT22;51043;52.406;9.690;2023-07-31T03:14:12;15.20;99.90
64634;DHT22;51043;52.406;9.690;2023-07-31T03:16:42;15.20;99.90
64634;DHT22;51043;52.406;9.690;2023-07-31T03:19:10;15.30;99.90
64634;DHT22;51043;52.406;9.690;2023-07-31T03:21:41;15.20;99.90
64634;DHT22;51043;52.406;9.690;2023-07-31T03:24:09;15.20;99.90
64634;DHT22;51043;52.406;9.690;2023-07-31T03:26:39;15.20;99.90
64634;DHT22;51043;52.406;9.690;2023-07-31T03:29:08;15.20;99.90
64634;DHT22;51043;52.406;9.690;2023-07-31T03:31:36;15.20;99.90
64634;DHT22;51043;52.406;9.690;2023-07-31T03:34:04;15.20;99.90
64634;DHT22;51043;52.406;9.690;2023-07-31T03:36:32;15.20;99.90
64634;DHT22;51043;52.406;9.690;2023-07-31T03:39:02;15.20;99.90
64634;DHT22;51043;52.406;9.690;2023-07-31T03:41:30;15.20;99.90
64634;DHT22;51043;52.406;9.690;2023-07-31T03:43:58;15.20;99.90
64634;DHT22;51043;52.406;9.690;2023-07-31T03:46:26;15.20;99.90
64634;DHT22;51043;52.406;9.690;2023-07-31T03:48:55;15.20;99.90
64634;DHT22;51043;52.406;9.690;2023-07-31T03:51:23;15.10;99.90
64634;DHT22;51043;52.406;9.690;2023-07-31T03:53:51;15.10;99.90
64634;DHT22;51043;52.406;9.690;2023-07-31T03:56:21;15.20;99.90
64634;DHT22;51043;52.406;9.690;2023-07-31T03:58:49;15.20;99.90
64634;DHT22;51043;52.406;9.690;2023-07-31T04:01:19;15.20;99.90
64634;DHT22;51043;52.406;9.690;2023-07-31T04:03:47;15.20;99.90
64634;DHT22;51043;52.406;9.690;2023-07-31T04:06:15;15.20;99.90
64634;DHT22;51043;52.406;9.690;2023-07-31T04:08:44;15.30;99.90
64634;DHT22;51043;52.406;9.690;2023-07-31T04:11:13;15.30;99.90
64634;DHT22;51043;52.406;9.690;2023-07-31T04:13:43;15.30;99.90
64634;DHT22;51043;52.406;9.690;2023-07-31T04:16:11;15.30;99.90
64634;DHT22;51043;52.406;9.690;2023-07-31T04:18:40;15.30;99.90
64634;DHT22;51043;52.406;9.690;2023-07-31T04:21:08;15.30;99.90
64634;DHT22;51043;52.406;9.690;2023-07-31T04:23:36;15.20;99.90
64634;DHT22;51043;52.406;9.690;2023-07-31T04:26:07;15.20;99.90
64634;DHT22;51043;52.406;9.690;2023-07-31T04:28:38;15.10;99.90
64634;DHT22;51043;52.406;9.690;2023-07-31T04:31:08;15.20;99.90
64634;DHT22;51043;52.406;9.690;2023-07-31T04:33:36;15.20;99.90
64634;DHT22;51043;52.406;9.690;2023-07-31T04:36:05;15.10;99.90
64634;DHT22;51043;52.406;9.690;2023-07-31T04:38:33;15.10;99.90
64634;DHT22;51043;52.406;9.690;2023-07-31T04:41:01;15.10;99.90
64634;DHT22;51043;52.406;9.690;2023-07-31T04:43:34;15.10;99.90
64634;DHT22;51043;52.406;9.690;2023-07-31T04:46:02;15.10;99.90
64634;DHT22;51043;52.406;9.690;2023-07-31T04:48:32;15.10;99.90
64634;DHT22;51043;52.406;9.690;2023-07-31T04:51:00;15.10;99.90
64634;DHT22;51043;52.406;9.690;2023-07-31T04:53:28;15.10;99.90
64634;DHT22;51043;52.406;9.690;2023-07-31T04:55:59;15.10;99.90
64634;DHT22;51043;52.406;9.690;2023-07-31T04:58:27;15.10;99.90
64634;DHT22;51043;52.406;9.690;2023-07-31T05:00:55;15.10;99.90
64634;DHT22;51043;52.406;9.690;2023-07-31T05:03:24;15.10;99.90
64634;DHT22;51043;52.406;9.690;2023-07-31T05:05:53;15.10;99.90
64634;DHT22;51043;52.406;9.690;2023-07-31T05:08:22;15.10;99.90
64634;DHT22;51043;52.406;9.690;2023-07-31T05:10:50;15.10;99.90
64634;DHT22;51043;52.406;9.690;2023-07-31T05:13:18;15.20;99.90
64634;DHT22;51043;52.406;9.690;2023-07-31T05:15:46;15.20;99.90
64634;DHT22;51043;52.406;9.690;2023-07-31T05:18:16;15.20;99.90
64634;DHT22;51043;52.406;9.690;2023-07-31T05:20:44;15.20;99.90
64634;DHT22;51043;52.406;9.690;2023-07-31T05:23:13;15.20;99.90
64634;DHT22;51043;52.406;9.690;2023-07-31T05:25:42;15.20;99.90
64634;DHT22;51043;52.406;9.690;2023-07-31T05:28:11;15.10;99.90
64634;DHT22;51043;52.406;9.690;2023-07-31T05:30:39;15.20;99.90
64634;DHT22;51043;52.406;9.690;2023-07-31T05:33:07;15.20;99.90
64634;DHT22;51043;52.406;9.690;2023-07-31T05:35:36;15.20;99.90
64634;DHT22;51043;52.406;9.690;2023-07-31T05:38:05;15.20;99.90
64634;DHT22;51043;52.406;9.690;2023-07-31T05:40:34;15.30;99.90
64634;DHT22;51043;52.406;9.690;2023-07-31T05:43:03;15.30;99.90
64634;DHT22;51043;52.406;9.690;2023-07-31T05:45:33;15.40;99.90
64634;DHT22;51043;52.406;9.690;2023-07-31T05:48:01;15.50;99.90
64634;DHT22;51043;52.406;9.690;2023-07-31T05:50:30;15.50;99.90
64634;DHT22;51043;52.406;9.690;2023-07-31T05:52:58;15.50;99.90
64634;DHT22;51043;52.406;9.690;2023-07-31T05:55:27;15.50;99.90
64634;DHT22;51043;52.406;9.690;2023-07-31T05:57:57;15.50;99.90
64634;DHT22;51043;52.406;9.690;2023-07-31T06:00:27;15.50;99.90
64634;DHT22;51043;52.406;9.690;2023-07-31T06:02:55;15.50;99.90
64634;DHT22;51043;52.406;9.690;2023-07-31T06:05:23;15.50;99.90
64634;DHT22;51043;52.406;9.690;2023-07-31T06:07:52;15.50;99.90
64634;DHT22;51043;52.406;9.690;2023-07-31T06:10:21;15.50;99.90
64634;DHT22;51043;52.406;9.690;2023-07-31T06:12:49;15.60;99.90
64634;DHT22;51043;52.406;9.690;2023-07-31T06:15:19;15.70;99.90
64634;DHT22;51043;52.406;9.690;2023-07-31T06:17:47;15.70;99.90
64634;DHT22;51043;52.406;9.690;2023-07-31T06:20:16;15.80;99.90
64634;DHT22;51043;52.406;9.690;2023-07-31T06:22:44;15.80;99.90
64634;DHT22;51043;52.406;9.690;2023-07-31T06:25:14;15.70;99.90
64634;DHT22;51043;52.406;9.690;2023-07-31T06:27:43;15.80;99.90
64634;DHT22;51043;52.406;9.690;2023-07-31T06:30:11;15.70;99.90
64634;DHT22;51043;52.406;9.690;2023-07-31T06:32:41;15.70;99.90
64634;DHT22;51043;52.406;9.690;2023-07-31T06:35:09;15.80;99.90
64634;DHT22;51043;52.406;9.690;2023-07-31T06:37:38;15.70;99.90
64634;DHT22;51043;52.406;9.690;2023-07-31T06:40:08;15.70;99.90
64634;DHT22;51043;52.406;9.690;2023-07-31T06:42:36;15.70;99.90
64634;DHT22;51043;52.406;9.690;2023-07-31T06:45:05;15.70;99.90
64634;DHT22;51043;52.406;9.690;2023-07-31T06:47:34;15.70;99.90
64634;DHT22;51043;52.406;9.690;2023-07-31T06:50:04;15.70;99.90
64634;DHT22;51043;52.406;9.690;2023-07-31T06:52:32;15.70;99.90
64634;DHT22;51043;52.406;9.690;2023-07-31T06:55:02;15.60;99.90
64634;DHT22;51043;52.406;9.690;2023-07-31T06:57:31;15.60;99.90
64634;DHT22;51043;52.406;9.690;2023-07-31T07:00:01;15.60;99.90
64634;DHT22;51043;52.406;9.690;2023-07-31T07:02:30;15.60;99.90
64634;DHT22;51043;52.406;9.690;2023-07-31T07:04:59;15.60;99.90
64634;DHT22;51043;52.406;9.690;2023-07-31T07:07:29;15.60;99.90
64634;DHT22;51043;52.406;9.690;2023-07-31T07:09:57;15.60;99.90
64634;DHT22;51043;52.406;9.690;2023-07-31T07:12:31;15.70;99.90
64634;DHT22;51043;52.406;9.690;2023-07-31T07:15:03;15.60;99.90
64634;DHT22;51043;52.406;9.690;2023-07-31T07:17:37;15.70;99.90
64634;DHT22;51043;52.406;9.690;2023-07-31T07:20:09;15.70;99.90
64634;DHT22;51043;52.406;9.690;2023-07-31T07:22:38;15.70;99.90
64634;DHT22;51043;52.406;9.690;2023-07-31T07:25:09;15.70;99.90
64634;DHT22;51043;52.406;9.690;2023-07-31T07:27:37;15.80;99.90
64634;DHT22;51043;52.406;9.690;2023-07-31T07:30:10;15.90;99.90
64634;DHT22;51043;52.406;9.690;2023-07-31T07:32:38;15.90;99.90
64634;DHT22;51043;52.406;9.690;2023-07-31T07:35:11;15.90;99.90
64634;DHT22;51043;52.406;9.690;2023-07-31T07:37:40;16.10;99.90
64634;DHT22;51043;52.406;9.690;2023-07-31T07:40:09;16.20;99.90
64634;DHT22;51043;52.406;9.690;2023-07-31T07:42:37;16.40;99.90
64634;DHT22;51043;52.406;9.690;2023-07-31T07:45:06;16.70;99.90
64634;DHT22;51043;52.406;9.690;2023-07-31T07:47:38;16.70;99.90
64634;DHT22;51043;52.406;9.690;2023-07-31T07:50:07;16.70;99.90
64634;DHT22;51043;52.406;9.690;2023-07-31T07:52:36;16.70;99.90
64634;DHT22;51043;52.406;9.690;2023-07-31T07:55:06;16.80;99.90
64634;DHT22;51043;52.406;9.690;2023-07-31T07:57:34;16.90;99.90
64634;DHT22;51043;52.406;9.690;2023-07-31T08:00:03;17.00;99.90
64634;DHT22;51043;52.406;9.690;2023-07-31T08:02:39;17.10;99.90
64634;DHT22;51043;52.406;9.690;2023-07-31T08:05:08;17.20;99.90
64634;DHT22;51043;52.406;9.690;2023-07-31T08:07:36;17.20;99.90
64634;DHT22;51043;52.406;9.690;2023-07-31T08:10:07;17.30;99.90
64634;DHT22;51043;52.406;9.690;2023-07-31T08:12:35;17.20;99.90
64634;DHT22;51043;52.406;9.690;2023-07-31T08:15:04;17.30;99.90
64634;DHT22;51043;52.406;9.690;2023-07-31T08:17:32;17.50;99.90
64634;DHT22;51043;52.406;9.690;2023-07-31T08:20:03;17.60;99.90
64634;DHT22;51043;52.406;9.690;2023-07-31T08:22:31;17.60;99.90
64634;DHT22;51043;52.406;9.690;2023-07-31T08:25:03;17.50;99.90
64634;DHT22;51043;52.406;9.690;2023-07-31T08:27:36;17.40;99.90
64634;DHT22;51043;52.406;9.690;2023-07-31T08:30:05;17.40;99.90
64634;DHT22;51043;52.406;9.690;2023-07-31T08:32:34;17.30;99.90
64634;DHT22;51043;52.406;9.690;2023-07-31T08:35:03;17.20;99.90
64634;DHT22;51043;52.406;9.690;2023-07-31T08:37:31;17.40;99.90
64634;DHT22;51043;52.406;9.690;2023-07-31T08:40:00;17.60;99.90
64634;DHT22;51043;52.406;9.690;2023-07-31T08:42:29;17.80;99.90
64634;DHT22;51043;52.406;9.690;2023-07-31T08:44:59;17.70;99.90
64634;DHT22;51043;52.406;9.690;2023-07-31T08:47:31;17.70;99.90
64634;DHT22;51043;52.406;9.690;2023-07-31T08:49:59;17.70;99.90
64634;DHT22;51043;52.406;9.690;2023-07-31T08:52:28;17.60;99.90
64634;DHT22;51043;52.406;9.690;2023-07-31T08:54:57;17.60;99.90
64634;DHT22;51043;52.406;9.690;2023-07-31T08:57:29;17.80;99.90
64634;DHT22;51043;52.406;9.690;2023-07-31T08:59:59;17.90;99.90
64634;DHT22;51043;52.406;9.690;2023-07-31T09:02:34;18.00;99.90
64634;DHT22;51043;52.406;9.690;2023-07-31T09:05:03;17.90;99.90
64634;DHT22;51043;52.406;9.690;2023-07-31T09:07:35;17.60;99.90
64634;DHT22;51043;52.406;9.690;2023-07-31T09:10:04;17.50;99.90
64634;DHT22;51043;52.406;9.690;2023-07-31T09:12:33;17.40;99.90
64634;DHT22;51043;52.406;9.690;2023-07-31T09:15:06;17.40;99.90
64634;DHT22;51043;52.406;9.690;2023-07-31T09:17:36;17.60;99.90
64634;DHT22;51043;52.406;9.690;2023-07-31T09:20:14;17.90;99.90
64634;DHT22;51043;52.406;9.690;2023-07-31T09:22:43;18.20;99.90
64634;DHT22;51043;52.406;9.690;2023-07-31T09:25:16;18.40;99.90
64634;DHT22;51043;52.406;9.690;2023-07-31T09:27:49;18.30;99.90
64634;DHT22;51043;52.406;9.690;2023-07-31T09:30:19;18.20;99.90
64634;DHT22;51043;52.406;9.690;2023-07-31T09:32:48;18.20;99.90
64634;DHT22;51043;52.406;9.690;2023-07-31T09:35:22;18.20;99.90
64634;DHT22;51043;52.406;9.690;2023-07-31T09:37:51;18.00;99.90
64634;DHT22;51043;52.406;9.690;2023-07-31T09:40:27;17.80;99.90
64634;DHT22;51043;52.406;9.690;2023-07-31T09:43:00;17.60;99.90
64634;DHT22;51043;52.406;9.690;2023-07-31T09:45:33;17.50;99.90
64634;DHT22;51043;52.406;9.690;2023-07-31T09:48:08;17.40;99.90
64634;DHT22;51043;52.406;9.690;2023-07-31T09:50:37;17.40;99.90
64634;DHT22;51043;52.406;9.690;2023-07-31T09:53:06;17.30;99.90
64634;DHT22;51043;52.406;9.690;2023-07-31T09:55:35;17.30;99.90
64634;DHT22;51043;52.406;9.690;2023-07-31T09:58:05;17.20;99.90
64634;DHT22;51043;52.406;9.690;2023-07-31T10:00:36;17.30;99.90
64634;DHT22;51043;52.406;9.690;2023-07-31T10:03:05;17.40;99.90
64634;DHT22;51043;52.406;9.690;2023-07-31T10:05:35;17.50;99.90
64634;DHT22;51043;52.406;9.690;2023-07-31T10:08:04;17.60;99.90
64634;DHT22;51043;52.406;9.690;2023-07-31T10:10:36;17.70;99.90
64634;DHT22;51043;52.406;9.690;2023-07-31T10:13:05;17.80;99.90
64634;DHT22;51043;52.406;9.690;2023-07-31T10:15:36;17.80;99.90
64634;DHT22;51043;52.406;9.690;2023-07-31T10:18:06;17.90;99.90
64634;DHT22;51043;52.406;9.690;2023-07-31T10:20:34;18.00;99.90
64634;DHT22;51043;52.406;9.690;2023-07-31T10:23:06;18.10;99.90
64634;DHT22;51043;52.406;9.690;2023-07-31T10:25:43;18.40;99.90
64634;DHT22;51043;52.406;9.690;2023-07-31T10:28:12;18.60;99.90
64634;DHT22;51043;52.406;9.690;2023-07-31T10:30:42;18.60;99.90
64634;DHT22;51043;52.406;9.690;2023-07-31T10:33:11;18.70;99.90
64634;DHT22;51043;52.406;9.690;2023-07-31T10:35:39;18.70;99.90
64634;DHT22;51043;52.406;9.690;2023-07-31T10:38:11;18.60;99.90
64634;DHT22;51043;52.406;9.690;2023-07-31T10:40:40;18.60;99.90
64634;DHT22;51043;52.406;9.690;2023-07-31T10:43:08;18.70;99.90
64634;DHT22;51043;52.406;9.690;2023-07-31T10:45:39;18.70;99.90
64634;DHT22;51043;52.406;9.690;2023-07-31T10:48:13;18.80;99.90
64634;DHT22;51043;52.406;9.690;2023-07-31T10:50:47;19.00;99.90
64634;DHT22;51043;52.406;9.690;2023-07-31T10:53:25;19.00;99.90
64634;DHT22;51043;52.406;9.690;2023-07-31T10:55:58;19.00;99.90
64634;DHT22;51043;52.406;9.690;2023-07-31T10:58:26;19.00;99.90
64634;DHT22;51043;52.406;9.690;2023-07-31T11:00:56;19.10;99.90
64634;DHT22;51043;52.406;9.690;2023-07-31T11:03:29;19.00;99.90
64634;DHT22;51043;52.406;9.690;2023-07-31T11:06:08;19.00;99.90
64634;DHT22;51043;52.406;9.690;2023-07-31T11:08:41;19.00;99.90
64634;DHT22;51043;52.406;9.690;2023-07-31T11:11:12;19.00;99.90
64634;DHT22;51043;52.406;9.690;2023-07-31T11:13:46;19.00;99.90
64634;DHT22;51043;52.406;9.690;2023-07-31T11:16:17;19.00;99.90
64634;DHT22;51043;52.406;9.690;2023-07-31T11:18:47;19.10;99.90
64634;DHT22;51043;52.406;9.690;2023-07-31T11:21:19;19.20;99.90
64634;DHT22;51043;52.406;9.690;2023-07-31T11:23:57;19.20;99.90
64634;DHT22;51043;52.406;9.690;2023-07-31T11:26:25;19.20;99.90
64634;DHT22;51043;52.406;9.690;2023-07-31T11:28:54;19.30;99.90
64634;DHT22;51043;52.406;9.690;2023-07-31T11:31:22;19.30;99.90
64634;DHT22;51043;52.406;9.690;2023-07-31T11:34:05;19.20;99.90
64634;DHT22;51043;52.406;9.690;2023-07-31T11:36:33;18.70;99.90
64634;DHT22;51043;52.406;9.690;2023-07-31T11:39:08;18.60;99.90
64634;DHT22;51043;52.406;9.690;2023-07-31T11:41:36;18.70;99.90
64634;DHT22;51043;52.406;9.690;2023-07-31T11:44:08;18.70;99.90
64634;DHT22;51043;52.406;9.690;2023-07-31T11:46:47;18.80;99.90
64634;DHT22;51043;52.406;9.690;2023-07-31T11:49:16;18.80;99.90
64634;DHT22;51043;52.406;9.690;2023-07-31T11:51:45;18.70;99.90
64634;DHT22;51043;52.406;9.690;2023-07-31T11:54:13;18.70;99.90
64634;DHT22;51043;52.406;9.690;2023-07-31T11:56:41;18.70;99.90
64634;DHT22;51043;52.406;9.690;2023-07-31T11:59:11;18.60;99.90
64634;DHT22;51043;52.406;9.690;2023-07-31T12:01:40;18.60;99.90
64634;DHT22;51043;52.406;9.690;2023-07-31T12:04:08;18.50;99.90
64634;DHT22;51043;52.406;9.690;2023-07-31T12:06:38;18.50;99.90
64634;DHT22;51043;52.406;9.690;2023-07-31T12:09:06;18.60;99.90
64634;DHT22;51043;52.406;9.690;2023-07-31T12:11:42;18.50;99.90
64634;DHT22;51043;52.406;9.690;2023-07-31T12:14:19;18.40;99.90
64634;DHT22;51043;52.406;9.690;2023-07-31T12:16:48;18.20;99.90
64634;DHT22;51043;52.406;9.690;2023-07-31T12:19:20;18.20;99.90
64634;DHT22;51043;52.406;9.690;2023-07-31T12:21:50;18.20;99.90
64634;DHT22;51043;52.406;9.690;2023-07-31T12:24:19;18.30;99.90
64634;DHT22;51043;52.406;9.690;2023-07-31T12:26:48;18.40;99.90
64634;DHT22;51043;52.406;9.690;2023-07-31T12:29:17;18.50;99.90
64634;DHT22;51043;52.406;9.690;2023-07-31T12:31:45;18.50;99.90
64634;DHT22;51043;52.406;9.690;2023-07-31T12:34:18;18.50;99.90
64634;DHT22;51043;52.406;9.690;2023-07-31T12:36:47;18.60;99.90
64634;DHT22;51043;52.406;9.690;2023-07-31T12:39:18;18.70;99.90
64634;DHT22;51043;52.406;9.690;2023-07-31T12:41:46;18.80;99.90
64634;DHT22;51043;52.406;9.690;2023-07-31T12:44:15;18.80;99.90
64634;DHT22;51043;52.406;9.690;2023-07-31T12:46:43;18.80;99.90
64634;DHT22;51043;52.406;9.690;2023-07-31T12:49:11;18.80;99.90
64634;DHT22;51043;52.406;9.690;2023-07-31T12:51:40;18.70;99.90
64634;DHT22;51043;52.406;9.690;2023-07-31T12:54:08;18.50;99.90
64634;DHT22;51043;52.406;9.690;2023-07-31T12:56:38;18.40;99.90
64634;DHT22;51043;52.406;9.690;2023-07-31T12:59:09;18.30;99.90
64634;DHT22;51043;52.406;9.690;2023-07-31T13:01:37;18.20;99.90
64634;DHT22;51043;52.406;9.690;2023-07-31T13:04:08;18.20;99.90
64634;DHT22;51043;52.406;9.690;2023-07-31T13:06:37;18.30;99.90
64634;DHT22;51043;52.406;9.690;2023-07-31T13:09:08;18.50;99.90
64634;DHT22;51043;52.406;9.690;2023-07-31T13:11:37;18.90;99.90
64634;DHT22;51043;52.406;9.690;2023-07-31T13:14:07;19.10;99.90
64634;DHT22;51043;52.406;9.690;2023-07-31T13:16:35;19.20;99.90
64634;DHT22;51043;52.406;9.690;2023-07-31T13:19:04;19.20;99.90
64634;DHT22;51043;52.406;9.690;2023-07-31T13:21:34;19.30;99.90
64634;DHT22;51043;52.406;9.690;2023-07-31T13:24:07;19.30;99.90
64634;DHT22;51043;52.406;9.690;2023-07-31T13:26:40;19.30;99.90
64634;DHT22;51043;52.406;9.690;2023-07-31T13:29:08;19.40;99.90
64634;DHT22;51043;52.406;9.690;2023-07-31T13:31:37;19.40;99.90
64634;DHT22;51043;52.406;9.690;2023-07-31T13:34:08;19.40;99.90
64634;DHT22;51043;52.406;9.690;2023-07-31T13:36:40;19.30;99.90
64634;DHT22;51043;52.406;9.690;2023-07-31T13:39:08;19.40;99.90
64634;DHT22;51043;52.406;9.690;2023-07-31T13:41:37;19.40;99.90
64634;DHT22;51043;52.406;9.690;2023-07-31T13:44:07;19.50;99.90
64634;DHT22;51043;52.406;9.690;2023-07-31T13:46:37;19.70;99.90
64634;DHT22;51043;52.406;9.690;2023-07-31T13:49:05;19.80;99.90
64634;DHT22;51043;52.406;9.690;2023-07-31T13:51:38;19.80;99.90
64634;DHT22;51043;52.406;9.690;2023-07-31T13:54:08;20.00;99.90
64634;DHT22;51043;52.406;9.690;2023-07-31T13:56:45;19.80;99.90
64634;DHT22;51043;52.406;9.690;2023-07-31T13:59:24;19.80;99.90
64634;DHT22;51043;52.406;9.690;2023-07-31T14:01:52;19.70;99.90
64634;DHT22;51043;52.406;9.690;2023-07-31T14:04:21;19.60;99.90
64634;DHT22;51043;52.406;9.690;2023-07-31T14:06:50;19.70;99.90
64634;DHT22;51043;52.406;9.690;2023-07-31T14:09:18;19.80;99.90
64634;DHT22;51043;52.406;9.690;2023-07-31T14:11:47;19.80;99.90
64634;DHT22;51043;52.406;9.690;2023-07-31T14:14:16;19.70;99.90
64634;DHT22;51043;52.406;9.690;2023-07-31T14:16:46;19.60;99.90
64634;DHT22;51043;52.406;9.690;2023-07-31T14:19:15;19.70;99.90
64634;DHT22;51043;52.406;9.690;2023-07-31T14:21:43;19.90;99.90
64634;DHT22;51043;52.406;9.690;2023-07-31T14:24:17;20.00;99.90
64634;DHT22;51043;52.406;9.690;2023-07-31T14:26:45;20.00;99.90
64634;DHT22;51043;52.406;9.690;2023-07-31T14:29:14;19.90;99.90
64634;DHT22;51043;52.406;9.690;2023-07-31T14:31:43;19.80;99.90
64634;DHT22;51043;52.406;9.690;2023-07-31T14:34:13;19.70;99.90
64634;DHT22;51043;52.406;9.690;2023-07-31T14:36:43;19.60;99.90
64634;DHT22;51043;52.406;9.690;2023-07-31T14:39:13;19.50;99.90
64634;DHT22;51043;52.406;9.690;2023-07-31T14:41:41;19.50;99.90
64634;DHT22;51043;52.406;9.690;2023-07-31T14:44:12;19.50;99.90
64634;DHT22;51043;52.406;9.690;2023-07-31T14:46:41;19.40;99.90
64634;DHT22;51043;52.406;9.690;2023-07-31T14:49:09;19.40;99.90
64634;DHT22;51043;52.406;9.690;2023-07-31T14:51:41;19.50;99.90
64634;DHT22;51043;52.406;9.690;2023-07-31T14:54:10;19.60;99.90
64634;DHT22;51043;52.406;9.690;2023-07-31T14:56:38;19.60;99.90
64634;DHT22;51043;52.406;9.690;2023-07-31T14:59:07;19.70;99.90
64634;DHT22;51043;52.406;9.690;2023-07-31T15:01:37;19.80;99.90
64634;DHT22;51043;52.406;9.690;2023-07-31T15:04:06;19.90;99.90
64634;DHT22;51043;52.406;9.690;2023-07-31T15:06:44;20.00;99.90
64634;DHT22;51043;52.406;9.690;2023-07-31T15:09:12;20.30;99.90
64634;DHT22;51043;52.406;9.690;2023-07-31T15:11:42;20.50;99.90
64634;DHT22;51043;52.406;9.690;2023-07-31T15:14:13;20.70;99.90
64634;DHT22;51043;52.406;9.690;2023-07-31T15:16:47;20.80;99.90
64634;DHT22;51043;52.406;9.690;2023-07-31T15:19:16;20.80;99.90
64634;DHT22;51043;52.406;9.690;2023-07-31T15:21:46;20.80;99.90
64634;DHT22;51043;52.406;9.690;2023-07-31T15:24:14;20.80;99.90
64634;DHT22;51043;52.406;9.690;2023-07-31T15:26:43;20.70;99.90
64634;DHT22;51043;52.406;9.690;2023-07-31T15:29:11;20.60;99.90
64634;DHT22;51043;52.406;9.690;2023-07-31T15:31:53;20.50;99.90
64634;DHT22;51043;52.406;9.690;2023-07-31T15:34:21;20.40;99.90
64634;DHT22;51043;52.406;9.690;2023-07-31T15:36:51;20.30;99.90
64634;DHT22;51043;52.406;9.690;2023-07-31T15:39:19;20.30;99.90
64634;DHT22;51043;52.406;9.690;2023-07-31T15:41:49;20.10;99.90
64634;DHT22;51043;52.406;9.690;2023-07-31T15:44:18;20.00;99.90
64634;DHT22;51043;52.406;9.690;2023-07-31T15:46:48;20.00;99.90
64634;DHT22;51043;52.406;9.690;2023-07-31T15:49:16;20.10;99.90